Terminal Aerodrome Forecast
Issued by NWS Duluth, MN

Home | Current Version | Previous Version | Text Only | Print | Product List | Glossary On
Versions: 1 2 3 4 5 6 7 8 9 10 11 12 13 14 15 16 17 18 19 20 21 22
000
FTUS43 KDLH 161139
TAFINL
TAF
KINL 161139Z 1612/1712 14004KT P6SM SCT060 BKN110
     FM161800 13007KT P6SM VCSH OVC070
     FM162100 12006KT P6SM -SHRA OVC035
     FM170000 12005KT 5SM -SHRA BR OVC025
     FM170300 11004KT 5SM -SHRA OVC015
     FM170700 08004KT 4SM -SHRA BR OVC008=

USA.gov is the U.S. government's official web portal to all federal, state and local government web resources and services.